createdAt,value
2023-03-31T00:00:25.643Z,47.03
2023-03-31T00:02:54.325Z,47.00
2023-03-31T00:05:22.213Z,47.31
2023-03-31T00:07:49.296Z,47.30
2023-03-31T00:10:19.471Z,47.01
2023-03-31T00:12:46.739Z,46.59
2023-03-31T00:15:14.264Z,47.21
2023-03-31T00:17:41.414Z,45.94
2023-03-31T00:20:12.640Z,46.68
2023-03-31T00:22:42.532Z,45.50
2023-03-31T00:25:11.360Z,45.76
2023-03-31T00:27:38.572Z,46.08
2023-03-31T00:30:06.220Z,45.49
2023-03-31T00:32:33.544Z,45.21
2023-03-31T00:35:02.498Z,44.92
2023-03-31T00:37:30.445Z,45.38
2023-03-31T00:39:57.775Z,44.98
2023-03-31T00:42:24.832Z,45.30
2023-03-31T00:45:17.051Z,45.69
2023-03-31T00:47:48.989Z,45.65
2023-03-31T00:50:20.647Z,44.77
2023-03-31T00:52:51.918Z,44.98
2023-03-31T00:55:25.804Z,44.78
2023-03-31T00:57:56.201Z,44.31
2023-03-31T01:00:24.313Z,44.55
2023-03-31T01:02:59.400Z,44.37
2023-03-31T01:05:31.514Z,44.66
2023-03-31T01:08:00.926Z,44.04
2023-03-31T01:10:29.889Z,43.31
2023-03-31T01:12:58.060Z,43.21
2023-03-31T01:15:25.211Z,43.20
2023-03-31T01:17:55.957Z,44.00
2023-03-31T01:20:37.210Z,43.64
2023-03-31T01:23:19.098Z,43.01
2023-03-31T01:26:08.023Z,43.35
2023-03-31T01:28:53.507Z,43.84
2023-03-31T01:31:35.936Z,44.61
2023-03-31T01:34:37.152Z,44.91
2023-03-31T01:37:39.864Z,44.70
2023-03-31T01:40:10.976Z,44.66
2023-03-31T01:43:11.598Z,44.62
2023-03-31T01:46:07.108Z,44.80
2023-03-31T01:49:05.984Z,45.21
2023-03-31T01:51:39.628Z,45.44
2023-03-31T01:54:11.016Z,44.67
2023-03-31T01:57:00.487Z,44.44
2023-03-31T02:00:35.115Z,45.29
2023-03-31T02:03:18.237Z,44.42
2023-03-31T02:05:52.961Z,44.37
2023-03-31T02:08:26.419Z,44.58
2023-03-31T02:10:54.819Z,44.96
2023-03-31T02:13:24.250Z,44.85
2023-03-31T02:15:59.985Z,45.22
2023-03-31T02:18:33.412Z,44.91
2023-03-31T02:21:01.698Z,45.16
2023-03-31T02:23:32.257Z,44.89
2023-03-31T02:26:10.364Z,44.51
2023-03-31T02:28:38.094Z,44.91
2023-03-31T02:31:20.980Z,44.91
2023-03-31T02:33:49.256Z,45.77
2023-03-31T02:36:17.084Z,44.71
2023-03-31T02:38:49.035Z,45.39
2023-03-31T02:41:16.241Z,45.01
2023-03-31T02:43:43.329Z,45.24
2023-03-31T02:46:10.688Z,45.16
2023-03-31T02:48:42.310Z,45.35
2023-03-31T02:51:09.391Z,45.46
2023-03-31T02:54:16.453Z,45.11
2023-03-31T02:57:06.089Z,45.77
2023-03-31T02:59:48.729Z,45.44
2023-03-31T03:02:25.821Z,45.01
2023-03-31T03:05:21.086Z,44.72
2023-03-31T03:08:08.117Z,45.05
2023-03-31T03:10:49.965Z,44.38
2023-03-31T03:13:35.111Z,45.37
2023-03-31T03:16:24.823Z,44.89
2023-03-31T03:19:02.390Z,45.35
2023-03-31T03:21:30.287Z,44.90
2023-03-31T03:23:58.231Z,45.05
2023-03-31T03:26:28.304Z,46.11
2023-03-31T03:28:56.708Z,44.77
2023-03-31T03:31:26.300Z,44.97
2023-03-31T03:33:53.781Z,45.87
2023-03-31T03:36:21.146Z,45.10
2023-03-31T03:38:48.178Z,45.87
2023-03-31T03:41:15.498Z,46.39
2023-03-31T03:43:42.671Z,46.42
2023-03-31T03:46:09.938Z,45.85
2023-03-31T03:48:37.067Z,45.93
2023-03-31T03:51:04.894Z,46.37
2023-03-31T03:53:32.296Z,46.49
2023-03-31T03:55:59.585Z,46.16
2023-03-31T03:58:26.734Z,45.76
2023-03-31T04:00:53.978Z,46.62
2023-03-31T04:03:21.116Z,45.89
2023-03-31T04:05:50.085Z,46.43
2023-03-31T04:08:18.563Z,46.42
2023-03-31T04:10:48.318Z,45.80
2023-03-31T04:13:19.646Z,46.16
2023-03-31T04:15:47.034Z,46.21
2023-03-31T04:18:18.940Z,45.79
2023-03-31T04:20:46.251Z,45.79
2023-03-31T04:23:15.138Z,45.07
2023-03-31T04:25:46.448Z,45.52
2023-03-31T04:28:14.788Z,46.08
2023-03-31T04:30:41.885Z,46.81
2023-03-31T04:33:09.062Z,46.14
2023-03-31T04:35:52.728Z,46.50
2023-03-31T04:38:22.671Z,45.30
2023-03-31T04:40:53.709Z,46.92
2023-03-31T04:43:21.931Z,47.09
2023-03-31T04:45:49.146Z,47.22
2023-03-31T04:48:16.670Z,47.56
2023-03-31T04:50:43.997Z,46.83
2023-03-31T04:53:11.225Z,46.50
2023-03-31T04:55:38.380Z,46.82
2023-03-31T04:58:05.473Z,46.98
2023-03-31T05:00:32.586Z,46.07
2023-03-31T05:03:00.320Z,46.69
2023-03-31T05:05:27.982Z,46.20
2023-03-31T05:07:55.270Z,46.80
2023-03-31T05:10:22.385Z,45.79
2023-03-31T05:12:49.497Z,46.25
2023-03-31T05:15:16.813Z,46.63
2023-03-31T05:17:44.093Z,47.12
2023-03-31T05:20:13.572Z,47.70
2023-03-31T05:22:43.805Z,46.60
2023-03-31T05:25:14.619Z,47.14
2023-03-31T05:27:41.782Z,46.76
2023-03-31T05:30:09.355Z,46.47
2023-03-31T05:32:36.624Z,47.77
2023-03-31T05:35:03.953Z,46.55
2023-03-31T05:37:31.785Z,46.82
2023-03-31T05:39:59.133Z,46.33
2023-03-31T05:42:26.326Z,46.98
2023-03-31T05:44:53.481Z,46.60
2023-03-31T05:47:20.583Z,46.46
2023-03-31T05:49:47.631Z,46.84
2023-03-31T05:52:14.933Z,47.07
2023-03-31T05:54:42.978Z,48.75
2023-03-31T05:57:10.635Z,47.15
2023-03-31T05:59:38.567Z,45.37
2023-03-31T06:02:05.734Z,47.83
2023-03-31T06:04:33.138Z,48.04
2023-03-31T06:07:00.240Z,48.30
2023-03-31T06:09:28.577Z,48.68
2023-03-31T06:11:55.763Z,47.08
2023-03-31T06:14:23.206Z,46.55
2023-03-31T06:16:50.396Z,48.12
2023-03-31T06:19:17.479Z,46.67
2023-03-31T06:21:44.666Z,47.35
2023-03-31T06:24:11.801Z,47.80
2023-03-31T06:26:38.980Z,46.91
2023-03-31T06:29:06.122Z,46.60
2023-03-31T06:31:33.283Z,47.84
2023-03-31T06:34:00.374Z,47.21
2023-03-31T06:36:27.466Z,46.39
2023-03-31T06:38:54.549Z,48.00
2023-03-31T06:41:22.608Z,48.48
2023-03-31T06:43:50.048Z,49.52
2023-03-31T06:46:18.306Z,48.18
2023-03-31T06:48:45.473Z,46.49
2023-03-31T06:51:13.264Z,47.46
2023-03-31T06:53:40.444Z,48.56
2023-03-31T06:56:08.329Z,46.07
2023-03-31T06:58:36.588Z,46.18
2023-03-31T07:01:05.406Z,46.81
2023-03-31T07:03:33.111Z,48.80
2023-03-31T07:06:01.136Z,48.26
2023-03-31T07:08:28.613Z,48.43
2023-03-31T07:10:58.973Z,50.26
2023-03-31T07:13:27.250Z,48.17
2023-03-31T07:15:55.077Z,47.75
2023-03-31T07:18:26.433Z,48.27
2023-03-31T07:20:53.976Z,46.40
2023-03-31T07:23:21.512Z,46.61
2023-03-31T07:25:49.199Z,46.53
2023-03-31T07:28:17.413Z,46.74
2023-03-31T07:30:44.750Z,46.32
2023-03-31T07:33:12.056Z,47.33
2023-03-31T07:35:41.100Z,46.98
2023-03-31T07:38:10.526Z,48.64
2023-03-31T07:40:37.984Z,50.99
2023-03-31T07:43:06.265Z,52.51
2023-03-31T07:45:34.280Z,52.36
2023-03-31T07:48:01.659Z,52.58
2023-03-31T07:50:28.901Z,53.71
2023-03-31T07:52:57.338Z,53.27
2023-03-31T07:55:26.450Z,54.29
2023-03-31T07:57:53.656Z,55.66
2023-03-31T08:00:21.492Z,56.80
2023-03-31T08:02:48.731Z,57.04
2023-03-31T08:05:18.422Z,58.26
2023-03-31T08:07:48.451Z,58.12
2023-03-31T08:10:21.964Z,58.64
2023-03-31T08:12:49.293Z,59.41
2023-03-31T08:15:16.796Z,59.63
2023-03-31T08:17:44.504Z,61.97
2023-03-31T08:20:12.663Z,61.82
2023-03-31T08:22:40.667Z,63.57
2023-03-31T08:25:08.775Z,63.69
2023-03-31T08:27:38.700Z,65.02
2023-03-31T08:30:08.130Z,67.19
2023-03-31T08:32:36.084Z,67.95
2023-03-31T08:35:03.410Z,68.67
2023-03-31T08:37:31.735Z,69.19
2023-03-31T08:39:58.971Z,70.26
2023-03-31T08:42:50.717Z,70.72
2023-03-31T08:45:23.929Z,71.58
2023-03-31T08:47:56.114Z,72.90
2023-03-31T08:50:31.032Z,74.62
2023-03-31T08:53:30.135Z,75.23
2023-03-31T08:55:58.965Z,75.19
2023-03-31T08:58:47.192Z,76.64
2023-03-31T09:01:52.266Z,77.72
2023-03-31T09:05:07.050Z,77.74
2023-03-31T09:08:00.233Z,78.03
2023-03-31T09:10:38.952Z,78.90
2023-03-31T09:13:08.751Z,78.55
2023-03-31T09:15:59.964Z,76.60
2023-03-31T09:18:37.282Z,76.74
2023-03-31T09:21:17.839Z,77.32
2023-03-31T09:24:17.082Z,77.89
2023-03-31T09:26:47.811Z,78.44
2023-03-31T09:29:24.590Z,78.88
2023-03-31T09:31:51.818Z,79.50
2023-03-31T09:34:31.908Z,81.49
2023-03-31T09:36:59.340Z,81.23
2023-03-31T09:39:27.396Z,80.98
2023-03-31T09:41:55.881Z,82.60
2023-03-31T10:20:37.578Z,90.70
2023-03-31T10:23:18.494Z,89.38
2023-03-31T10:25:47.400Z,88.06
2023-03-31T10:28:18.728Z,88.48
2023-03-31T10:30:55.229Z,87.67
2023-03-31T10:33:27.379Z,86.88
2023-03-31T10:36:22.204Z,88.95
2023-03-31T10:38:52.019Z,88.60
2023-03-31T10:41:22.873Z,87.50
2023-03-31T10:43:55.621Z,86.04
2023-03-31T10:46:40.076Z,85.67
2023-03-31T10:49:27.578Z,86.69
2023-03-31T10:52:03.954Z,86.22
2023-03-31T10:54:31.407Z,87.06
2023-03-31T10:57:05.756Z,86.75
2023-03-31T10:59:51.924Z,85.45
2023-03-31T11:02:39.340Z,83.72
2023-03-31T11:05:35.645Z,84.24
2023-03-31T11:08:39.961Z,84.17
2023-03-31T11:11:54.449Z,84.57
2023-03-31T11:14:38.966Z,82.56
2023-03-31T11:17:08.906Z,82.44
2023-03-31T11:19:58.520Z,81.22
2023-03-31T11:22:54.174Z,79.68
2023-03-31T11:25:21.367Z,79.10
2023-03-31T11:27:48.390Z,78.17
2023-03-31T11:30:18.175Z,77.43
2023-03-31T11:33:03.363Z,77.27
2023-03-31T11:35:45.539Z,77.83
2023-03-31T11:38:13.127Z,77.32
2023-03-31T11:41:00.062Z,76.00
2023-03-31T11:43:34.126Z,75.68
2023-03-31T11:46:13.717Z,75.55
2023-03-31T11:48:55.437Z,74.45
2023-03-31T11:51:26.708Z,74.45
2023-03-31T11:53:56.905Z,73.08
2023-03-31T11:56:28.737Z,72.46
2023-03-31T11:58:59.576Z,72.79
2023-03-31T12:01:29.740Z,71.31
2023-03-31T12:04:03.109Z,70.81
2023-03-31T12:06:42.748Z,70.94
2023-03-31T12:09:35.192Z,70.46
2023-03-31T12:12:17.395Z,68.94
2023-03-31T12:14:52.673Z,69.78
2023-03-31T12:17:26.203Z,69.08
2023-03-31T12:20:02.346Z,68.43
2023-03-31T12:22:40.104Z,68.77
2023-03-31T12:25:13.260Z,68.74
2023-03-31T12:27:43.243Z,68.38
2023-03-31T12:30:20.700Z,68.20
2023-03-31T12:32:52.616Z,68.68
2023-03-31T12:35:22.223Z,69.88
2023-03-31T12:38:37.295Z,70.23
2023-03-31T12:41:15.085Z,71.30
2023-03-31T12:43:57.027Z,69.73
2023-03-31T12:46:36.099Z,70.70
2023-03-31T12:49:21.458Z,69.75
2023-03-31T12:52:00.321Z,69.42
2023-03-31T12:54:48.992Z,70.12
2023-03-31T12:57:24.412Z,70.54
2023-03-31T13:00:17.288Z,72.80
2023-03-31T13:02:44.685Z,71.77
2023-03-31T13:05:39.295Z,70.78
2023-03-31T13:08:09.456Z,70.87
2023-03-31T13:10:59.545Z,69.37
2023-03-31T13:13:27.107Z,70.05
2023-03-31T13:16:00.050Z,69.97
2023-03-31T13:18:29.344Z,70.09
2023-03-31T13:23:45.423Z,69.93
2023-03-31T13:26:32.662Z,70.06
2023-03-31T13:29:14.911Z,69.69
2023-03-31T13:32:00.802Z,70.67
2023-03-31T13:34:32.584Z,69.76
2023-03-31T13:37:17.214Z,68.36
2023-03-31T13:39:49.652Z,68.20
2023-03-31T13:42:19.507Z,68.50
2023-03-31T13:44:55.808Z,69.15
2023-03-31T13:47:34.765Z,68.71
2023-03-31T13:50:17.682Z,69.16
2023-03-31T13:52:56.525Z,70.24
2023-03-31T13:55:48.110Z,70.10
2023-03-31T13:58:34.244Z,70.98
2023-03-31T14:01:32.538Z,71.30
2023-03-31T14:04:31.264Z,68.89
2023-03-31T14:07:13.006Z,68.40
2023-03-31T14:09:49.925Z,69.29
2023-03-31T14:12:37.833Z,68.12
2023-03-31T14:15:06.570Z,68.32
2023-03-31T14:17:38.456Z,66.51
2023-03-31T14:20:28.707Z,66.41
2023-03-31T14:23:02.075Z,66.66
2023-03-31T14:25:48.889Z,66.12
2023-03-31T14:28:35.653Z,66.39
2023-03-31T14:31:13.623Z,65.81
2023-03-31T14:34:03.076Z,64.93
2023-03-31T14:36:41.868Z,65.97
2023-03-31T14:39:11.956Z,64.79
2023-03-31T14:41:40.227Z,63.49
2023-03-31T14:44:14.332Z,64.53
2023-03-31T14:46:41.613Z,64.01
2023-03-31T14:49:27.517Z,64.40
2023-03-31T14:51:59.468Z,65.04
2023-03-31T14:54:26.751Z,64.54
2023-03-31T14:56:58.573Z,64.94
2023-03-31T14:59:33.130Z,64.58
2023-03-31T15:02:03.669Z,65.30
2023-03-31T15:04:42.410Z,67.00
2023-03-31T15:07:10.882Z,66.26
2023-03-31T15:09:39.086Z,66.16
2023-03-31T15:12:15.043Z,66.94
2023-03-31T15:14:47.473Z,66.54
2023-03-31T15:17:24.526Z,66.15
2023-03-31T15:19:57.736Z,66.26
2023-03-31T15:22:28.113Z,64.11
2023-03-31T15:24:55.961Z,63.43
2023-03-31T15:27:36.948Z,63.33
2023-03-31T15:30:23.873Z,64.38
2023-03-31T15:32:52.149Z,64.56
2023-03-31T15:35:27.486Z,64.02
2023-03-31T15:37:58.142Z,63.29
2023-03-31T15:40:32.785Z,62.71
2023-03-31T15:43:24.271Z,62.59
2023-03-31T15:45:54.016Z,63.48
2023-03-31T15:48:53.189Z,64.29
2023-03-31T15:51:34.420Z,64.84
2023-03-31T15:54:01.840Z,63.79
2023-03-31T15:56:44.054Z,63.61
2023-03-31T15:59:37.890Z,63.36
2023-03-31T16:02:13.798Z,64.37
2023-03-31T16:04:41.239Z,65.14
2023-03-31T16:07:22.652Z,65.08
2023-03-31T16:09:57.949Z,64.61
2023-03-31T16:12:40.063Z,64.25
2023-03-31T16:15:16.681Z,66.84
2023-03-31T16:17:49.701Z,65.72
2023-03-31T16:20:27.334Z,65.14
2023-03-31T16:23:01.254Z,64.60
2023-03-31T16:25:31.510Z,63.61
2023-03-31T16:28:01.360Z,62.70
2023-03-31T16:30:34.469Z,62.84
2023-03-31T16:33:03.295Z,63.42
2023-03-31T16:35:37.028Z,63.96
2023-03-31T16:38:06.309Z,63.44
2023-03-31T16:40:39.153Z,66.22
2023-03-31T16:43:19.726Z,67.30
2023-03-31T16:45:49.323Z,65.94
2023-03-31T16:48:18.958Z,65.67
2023-03-31T16:50:48.306Z,68.87
2023-03-31T16:53:18.972Z,67.44
2023-03-31T16:55:46.648Z,66.84
2023-03-31T16:58:14.507Z,68.43
2023-03-31T17:00:42.171Z,70.40
2023-03-31T17:03:11.298Z,68.75
2023-03-31T17:05:43.498Z,67.05
2023-03-31T17:08:12.697Z,65.94
2023-03-31T17:10:41.177Z,67.39
2023-03-31T17:13:09.805Z,67.28
2023-03-31T17:15:37.984Z,66.79
2023-03-31T17:18:05.639Z,66.82
2023-03-31T17:20:34.403Z,68.08
2023-03-31T17:23:02.542Z,68.39
2023-03-31T17:25:29.651Z,69.71
2023-03-31T17:27:57.558Z,67.01
2023-03-31T17:30:24.649Z,66.42
2023-03-31T17:32:52.420Z,66.33
2023-03-31T17:35:21.788Z,66.57
2023-03-31T17:37:53.777Z,65.48
2023-03-31T17:40:23.417Z,63.83
2023-03-31T17:42:51.049Z,65.10
2023-03-31T17:45:18.141Z,63.82
2023-03-31T17:47:46.400Z,64.08
2023-03-31T17:50:13.616Z,65.80
2023-03-31T17:52:41.097Z,65.76
2023-03-31T17:55:09.116Z,64.18
2023-03-31T17:57:37.294Z,64.80
2023-03-31T18:00:06.266Z,64.41
2023-03-31T18:02:38.004Z,63.83
2023-03-31T18:05:07.381Z,66.52
2023-03-31T18:07:36.147Z,66.80
2023-03-31T18:10:05.488Z,66.34
2023-03-31T18:12:34.494Z,66.43
2023-03-31T18:15:02.961Z,67.51
2023-03-31T18:17:31.347Z,66.97
2023-03-31T18:19:59.453Z,66.30
2023-03-31T18:22:27.591Z,66.03
2023-03-31T18:24:54.718Z,65.56
2023-03-31T18:27:23.259Z,64.83
2023-03-31T18:29:52.127Z,66.50
2023-03-31T18:32:20.239Z,66.01
2023-03-31T18:34:47.426Z,65.72
2023-03-31T18:37:14.671Z,64.34
2023-03-31T18:39:42.640Z,64.07
2023-03-31T18:42:09.945Z,63.80
2023-03-31T18:44:39.310Z,65.06
2023-03-31T18:47:06.839Z,64.29
2023-03-31T18:49:34.013Z,63.12
2023-03-31T18:52:02.595Z,61.87
2023-03-31T18:54:29.820Z,62.26
2023-03-31T18:56:57.051Z,62.25
2023-03-31T18:59:24.424Z,61.56
2023-03-31T19:01:51.567Z,61.46
2023-03-31T19:04:18.724Z,61.54
2023-03-31T19:06:45.805Z,61.73
2023-03-31T19:09:13.214Z,61.81
2023-03-31T19:11:40.465Z,62.18
2023-03-31T19:14:07.586Z,62.53
2023-03-31T19:16:41.918Z,62.83
2023-03-31T19:19:09.324Z,63.42
2023-03-31T19:21:37.491Z,63.08
2023-03-31T19:24:05.431Z,63.18
2023-03-31T19:26:32.600Z,63.42
2023-03-31T19:29:00.385Z,63.94
2023-03-31T19:31:28.121Z,67.82
2023-03-31T19:33:55.379Z,69.47
2023-03-31T19:36:22.656Z,70.22
2023-03-31T19:38:49.839Z,69.29
2023-03-31T19:41:18.362Z,68.03
2023-03-31T19:43:47.741Z,66.91
2023-03-31T19:46:15.689Z,66.45
2023-03-31T19:48:42.844Z,67.80
2023-03-31T19:51:10.458Z,68.48
2023-03-31T19:53:38.844Z,67.96
2023-03-31T19:56:09.403Z,67.41
2023-03-31T19:58:37.376Z,67.60
2023-03-31T20:01:07.430Z,68.03
2023-03-31T20:03:35.408Z,67.71
2023-03-31T20:06:04.923Z,68.24
2023-03-31T20:08:32.601Z,69.16
2023-03-31T20:11:01.810Z,66.62
2023-03-31T20:13:29.117Z,65.94
2023-03-31T20:16:04.953Z,67.92
2023-03-31T20:18:32.748Z,67.79
2023-03-31T20:21:08.181Z,67.61
2023-03-31T20:23:38.089Z,66.44
2023-03-31T20:26:08.050Z,68.32
2023-03-31T20:28:37.005Z,67.13
2023-03-31T20:31:19.471Z,66.64
2023-03-31T20:33:47.334Z,66.60
2023-03-31T20:36:19.644Z,65.99
2023-03-31T20:38:51.288Z,66.00
2023-03-31T20:41:21.046Z,66.04
2023-03-31T20:43:48.491Z,64.99
2023-03-31T20:46:16.064Z,67.82
2023-03-31T20:48:56.005Z,66.51
2023-03-31T20:51:25.982Z,66.30
2023-03-31T20:53:54.254Z,66.38
2023-03-31T20:56:29.476Z,65.36
2023-03-31T20:58:59.138Z,67.68
2023-03-31T21:01:28.653Z,67.76
2023-03-31T21:04:00.983Z,67.26
2023-03-31T21:06:32.747Z,67.57
2023-03-31T21:09:00.141Z,66.45
2023-03-31T21:11:27.598Z,66.05
2023-03-31T21:13:54.757Z,65.84
2023-03-31T21:16:22.534Z,65.88
2023-03-31T21:18:51.886Z,65.69
2023-03-31T21:21:19.717Z,65.55
2023-03-31T21:23:47.276Z,65.42
2023-03-31T21:26:15.963Z,65.59
2023-03-31T21:28:43.979Z,65.91
2023-03-31T21:31:14.480Z,66.52
2023-03-31T21:33:43.287Z,65.97
2023-03-31T21:36:16.561Z,65.94
2023-03-31T21:38:44.852Z,65.50
2023-03-31T21:41:15.542Z,65.81
2023-03-31T21:43:43.421Z,66.03
2023-03-31T21:46:16.036Z,66.66
2023-03-31T21:48:43.213Z,66.35
2023-03-31T21:51:10.991Z,66.27
2023-03-31T21:53:38.277Z,66.85
2023-03-31T21:56:05.665Z,67.14
2023-03-31T21:58:33.084Z,66.86
2023-03-31T22:01:04.098Z,66.38
2023-03-31T22:03:34.542Z,66.24
2023-03-31T22:06:03.682Z,66.42
2023-03-31T22:08:31.786Z,66.58
2023-03-31T22:11:00.602Z,66.88
2023-03-31T22:13:28.947Z,66.09
2023-03-31T22:15:56.517Z,65.90
2023-03-31T22:18:23.908Z,65.59
2023-03-31T22:20:51.340Z,66.13
2023-03-31T22:23:20.761Z,66.14
2023-03-31T22:25:48.478Z,66.45
2023-03-31T22:28:16.945Z,66.14
2023-03-31T22:30:44.333Z,65.53
2023-03-31T22:33:12.850Z,65.45
2023-03-31T22:35:39.999Z,66.13
2023-03-31T22:38:08.693Z,65.88
2023-03-31T22:40:36.585Z,65.69
2023-03-31T22:43:04.080Z,65.54
2023-03-31T22:45:31.846Z,65.28
2023-03-31T22:47:59.179Z,66.17
2023-03-31T22:50:27.465Z,66.32
2023-03-31T22:52:54.631Z,66.37
2023-03-31T22:55:21.942Z,65.61
2023-03-31T22:57:49.173Z,65.72
2023-03-31T23:00:17.190Z,65.83
2023-03-31T23:02:44.384Z,66.59
2023-03-31T23:05:11.716Z,66.51
2023-03-31T23:07:38.886Z,65.35
2023-03-31T23:10:06.594Z,65.40
2023-03-31T23:12:33.772Z,64.58
2023-03-31T23:15:00.968Z,68.10
2023-03-31T23:17:28.044Z,67.95
2023-03-31T23:19:55.081Z,67.61
2023-03-31T23:22:22.251Z,67.04
2023-03-31T23:24:49.604Z,66.87
2023-03-31T23:27:16.709Z,68.06
2023-03-31T23:29:44.586Z,66.39
2023-03-31T23:32:12.301Z,68.83
2023-03-31T23:34:41.950Z,68.89
2023-03-31T23:37:10.916Z,69.57
2023-03-31T23:39:39.034Z,68.58
2023-03-31T23:42:07.242Z,68.09
2023-03-31T23:44:37.998Z,68.60
2023-03-31T23:47:05.746Z,67.23
2023-03-31T23:49:33.755Z,66.96
2023-03-31T23:52:01.111Z,66.72
2023-03-31T23:54:28.991Z,67.29
2023-03-31T23:56:56.533Z,67.08
2023-03-31T23:59:23.714Z,68.20
